Time,TemperatureF,DewpointF,PressureIn,WindDirection,WindDirectionDegrees,WindSpeedMPH,WindSpeedGustMPH,Humidity,HourlyPrecipIn,Conditions,Clouds,dailyrainin,SoftwareType,DateUTC
2013-01-28 07:20:00,31.1,29.3,30.36,NE,38,2.0,2.0,93,0.00,,,0.00,Wunderground v.1.15,2013-01-28 12:20:00,
2013-01-28 07:21:00,31.1,29.3,30.36,NE,38,2.0,2.0,93,0.00,,,0.00,Wunderground v.1.15,2013-01-28 12:21:00,
2013-01-28 07:22:00,31.1,29.3,30.36,NE,38,2.0,2.0,93,0.00,,,0.00,Wunderground v.1.15,2013-01-28 12:22:00,
2013-01-28 07:23:00,31.1,29.3,30.35,NE,38,2.0,2.0,93,0.00,,,0.00,Wunderground v.1.15,2013-01-28 12:23:00,
2013-01-28 07:28:00,31.1,29.3,30.36,NE,38,1.0,2.0,93,0.00,,,0.00,Wunderground v.1.15,2013-01-28 12:28:00,
2013-01-28 07:33:00,31.1,29.3,30.36,NE,38,1.0,1.0,93,0.00,,,0.00,Wunderground v.1.15,2013-01-28 12:33:00,
2013-01-28 07:39:00,31.1,29.3,30.37,NE,38,0.0,2.0,93,0.00,,,0.00,Wunderground v.1.15,2013-01-28 12:39:00,
2013-01-28 07:44:00,31.2,29.4,30.37,NE,38,1.0,2.0,93,0.00,,,0.00,Wunderground v.1.15,2013-01-28 12:44:00,
2013-01-28 07:50:00,31.2,29.4,30.36,NE,39,1.0,2.0,93,0.00,,,0.00,Wunderground v.1.15,2013-01-28 12:50:00,
2013-01-28 07:55:00,31.3,29.8,30.36,NE,39,2.0,2.0,94,0.00,,,0.00,Wunderground v.1.15,2013-01-28 12:55:00,
2013-01-28 08:01:00,31.3,29.8,30.35,NE,39,2.0,2.0,94,0.00,,,0.00,Wunderground v.1.15,2013-01-28 13:01:00,
2013-01-28 08:06:00,31.3,29.8,30.35,NE,39,1.0,2.0,94,0.00,,,0.00,Wunderground v.1.15,2013-01-28 13:06:00,
2013-01-28 08:11:00,31.3,29.8,30.35,NE,39,1.0,3.0,94,0.00,,,0.00,Wunderground v.1.15,2013-01-28 13:11:00,
2013-01-28 08:17:00,31.3,29.8,30.35,NE,39,1.0,3.0,94,0.00,,,0.00,Wunderground v.1.15,2013-01-28 13:17:00,
2013-01-28 08:22:00,31.3,29.8,30.35,NE,39,1.0,1.0,94,0.00,,,0.00,Wunderground v.1.15,2013-01-28 13:22:00,
2013-01-28 08:28:00,31.4,29.9,30.35,NE,38,1.0,3.0,94,0.00,,,0.00,Wunderground v.1.15,2013-01-28 13:28:00,
2013-01-28 08:33:00,31.4,29.9,30.35,NE,38,1.0,2.0,94,0.00,,,0.00,Wunderground v.1.15,2013-01-28 13:33:00,
2013-01-28 08:38:00,31.4,29.9,30.35,NE,49,1.0,3.0,94,0.00,,,0.00,Wunderground v.1.15,2013-01-28 13:38:00,
2013-01-28 08:43:00,31.4,29.9,30.34,NE,52,2.0,2.0,94,0.00,,,0.00,Wunderground v.1.15,2013-01-28 13:43:00,
2013-01-28 08:49:00,31.4,29.9,30.34,ENE,63,2.0,5.0,94,0.00,,,0.00,Wunderground v.1.15,2013-01-28 13:49:00,
2013-01-28 08:54:00,31.5,30.0,30.34,ENE,67,2.0,4.0,94,0.00,,,0.00,Wunderground v.1.15,2013-01-28 13:54:00,
2013-01-28 09:00:00,31.5,30.0,30.34,ENE,67,2.0,2.0,94,0.00,,,0.00,Wunderground v.1.15,2013-01-28 14:00:00,
2013-01-28 09:05:00,31.6,30.1,30.34,ENE,67,1.0,3.0,94,0.00,,,0.00,Wunderground v.1.15,2013-01-28 14:05:00,
2013-01-28 09:11:00,31.7,30.2,30.33,ENE,67,1.0,1.0,94,0.00,,,0.00,Wunderground v.1.15,2013-01-28 14:11:00,
2013-01-28 09:16:00,31.8,30.3,30.33,ENE,67,1.0,1.0,94,0.00,,,0.00,Wunderground v.1.15,2013-01-28 14:16:00,
2013-01-28 09:21:00,31.8,30.5,30.33,ENE,67,0.0,1.0,95,0.00,,,0.00,Wunderground v.1.15,2013-01-28 14:21:00,
2013-01-28 09:27:00,31.9,30.6,30.33,ENE,67,1.0,1.0,95,0.00,,,0.00,Wunderground v.1.15,2013-01-28 14:27:00,
2013-01-28 09:32:00,32.0,30.7,30.32,ENE,67,0.0,3.0,95,0.00,,,0.00,Wunderground v.1.15,2013-01-28 14:32:00,
2013-01-28 09:38:00,32.1,30.8,30.32,ENE,67,1.0,3.0,95,0.00,,,0.00,Wunderground v.1.15,2013-01-28 14:38:00,
2013-01-28 09:44:00,32.2,30.9,30.32,SE,137,2.0,4.0,95,0.00,,,0.00,Wunderground v.1.15,2013-01-28 14:44:00,
2013-01-28 09:49:00,32.4,31.1,30.32,SE,146,2.0,4.0,95,0.00,,,0.00,Wunderground v.1.15,2013-01-28 14:49:00,
2013-01-28 09:54:00,32.5,31.2,30.31,South,188,2.0,5.0,95,0.00,,,0.00,Wunderground v.1.15,2013-01-28 14:54:00,
2013-01-28 10:00:00,32.6,31.3,30.30,South,186,3.0,3.0,95,0.00,,,0.00,Wunderground v.1.15,2013-01-28 15:00:00,
2013-01-28 10:05:00,32.6,31.3,30.30,South,186,2.0,3.0,95,0.00,,,0.00,Wunderground v.1.15,2013-01-28 15:05:00,
2013-01-28 10:10:00,32.6,31.3,30.30,South,185,1.0,1.0,95,0.00,,,0.00,Wunderground v.1.15,2013-01-28 15:10:00,
2013-01-28 10:15:00,32.8,31.5,30.31,South,188,2.0,4.0,95,0.00,,,0.00,Wunderground v.1.15,2013-01-28 15:15:00,
2013-01-28 10:21:00,33.1,31.8,30.31,South,187,2.0,3.0,95,0.00,,,0.00,Wunderground v.1.15,2013-01-28 15:21:00,
2013-01-28 10:26:00,33.6,32.3,30.30,South,187,2.0,3.0,95,0.00,,,0.01,Wunderground v.1.15,2013-01-28 15:26:00,
2013-01-28 10:31:00,34.1,32.8,30.30,SSW,192,2.0,4.0,95,4.65,,,0.08,Wunderground v.1.15,2013-01-28 15:31:00,
2013-01-28 10:37:00,34.4,33.1,30.29,SSW,194,3.0,5.0,95,0.11,,,0.11,Wunderground v.1.15,2013-01-28 15:37:00,
2013-01-28 10:42:00,34.5,33.2,30.29,South,190,4.0,6.0,95,0.06,,,0.11,Wunderground v.1.15,2013-01-28 15:42:00,
2013-01-28 10:48:00,34.8,33.5,30.29,SSW,207,5.0,7.0,95,0.05,,,0.12,Wunderground v.1.15,2013-01-28 15:48:00,
2013-01-28 10:53:00,35.0,33.7,30.28,SSW,196,5.0,7.0,95,0.05,,,0.12,Wunderground v.1.15,2013-01-28 15:53:00,
2013-01-28 10:59:00,35.6,34.3,30.28,SSW,205,5.0,8.0,95,0.04,,,0.12,Wunderground v.1.15,2013-01-28 15:59:00,
2013-01-28 11:04:00,35.8,34.2,30.28,SSW,209,6.0,7.0,94,0.00,,,0.12,Wunderground v.1.15,2013-01-28 16:04:00,
2013-01-28 11:10:00,36.4,34.8,30.27,SSW,211,6.0,7.0,94,0.00,,,0.12,Wunderground v.1.15,2013-01-28 16:10:00,
2013-01-28 11:15:00,36.8,35.5,30.27,SW,221,6.0,11.0,95,0.00,,,0.12,Wunderground v.1.15,2013-01-28 16:15:00,
2013-01-28 11:21:00,36.8,35.2,30.27,SW,217,7.0,14.0,94,0.00,,,0.13,Wunderground v.1.15,2013-01-28 16:21:00,
2013-01-28 11:26:00,36.8,35.2,30.26,SSW,211,8.0,14.0,94,0.00,,,0.13,Wunderground v.1.15,2013-01-28 16:26:00,
2013-01-28 11:32:00,36.9,35.1,30.26,SSW,209,8.0,9.0,93,0.00,,,0.13,Wunderground v.1.15,2013-01-28 16:32:00,
2013-01-28 11:37:00,36.9,35.1,30.25,SW,215,8.0,9.0,93,0.00,,,0.13,Wunderground v.1.15,2013-01-28 16:37:00,
2013-01-28 11:42:00,37.0,35.2,30.25,SW,215,8.0,9.0,93,0.00,,,0.13,Wunderground v.1.15,2013-01-28 16:42:00,
2013-01-28 11:47:00,37.0,35.2,30.25,SW,219,8.0,11.0,93,0.00,,,0.13,Wunderground v.1.15,2013-01-28 16:47:00,
2013-01-28 11:53:00,36.9,35.1,30.24,SW,227,8.0,11.0,93,0.00,,,0.13,Wunderground v.1.15,2013-01-28 16:53:00,
2013-01-28 11:58:00,36.8,35.0,30.24,SW,227,8.0,11.0,93,0.00,,,0.13,Wunderground v.1.15,2013-01-28 16:58:00,
2013-01-28 12:03:00,36.7,34.6,30.23,SW,225,9.0,15.0,92,0.00,,,0.13,Wunderground v.1.15,2013-01-28 17:03:00,
2013-01-28 12:09:00,36.8,34.7,30.23,SSW,213,8.0,15.0,92,0.00,,,0.13,Wunderground v.1.15,2013-01-28 17:09:00,
2013-01-28 12:15:00,37.2,35.4,30.22,SSW,209,7.0,11.0,93,0.00,,,0.13,Wunderground v.1.15,2013-01-28 17:15:00,
2013-01-28 12:20:00,37.8,36.0,30.22,SW,226,7.0,8.0,93,0.00,,,0.13,Wunderground v.1.15,2013-01-28 17:20:00,
2013-01-28 12:26:00,38.4,36.6,30.21,SW,221,8.0,11.0,93,0.00,,,0.14,Wunderground v.1.15,2013-01-28 17:26:00,
2013-01-28 12:32:00,38.8,36.7,30.20,SW,214,9.0,9.0,92,0.00,,,0.14,Wunderground v.1.15,2013-01-28 17:32:00,
2013-01-28 12:37:00,39.1,37.0,30.20,SW,229,9.0,15.0,92,0.00,,,0.14,Wunderground v.1.15,2013-01-28 17:37:00,
2013-01-28 12:42:00,39.3,37.2,30.20,SW,218,9.0,11.0,92,0.00,,,0.14,Wunderground v.1.15,2013-01-28 17:42:00,
2013-01-28 12:47:00,39.6,37.2,30.19,SW,229,8.0,11.0,91,0.00,,,0.14,Wunderground v.1.15,2013-01-28 17:47:00,
2013-01-28 12:53:00,40.2,37.8,30.19,SSW,213,8.0,9.0,91,0.00,,,0.14,Wunderground v.1.15,2013-01-28 17:53:00,
2013-01-28 12:58:00,40.4,38.0,30.18,SSW,211,9.0,14.0,91,0.00,,,0.14,Wunderground v.1.15,2013-01-28 17:58:00,
2013-01-28 13:04:00,40.7,38.3,30.17,SW,216,9.0,9.0,91,0.00,,,0.14,Wunderground v.1.15,2013-01-28 18:04:00,
2013-01-28 13:09:00,41.2,38.8,30.17,SSW,210,9.0,13.0,91,0.00,,,0.14,Wunderground v.1.15,2013-01-28 18:09:00,
2013-01-28 13:15:00,41.8,39.4,30.17,SW,229,9.0,13.0,91,0.00,,,0.14,Wunderground v.1.15,2013-01-28 18:15:00,
2013-01-28 13:20:00,42.0,39.3,30.16,SW,217,8.0,8.0,90,0.00,,,0.14,Wunderground v.1.15,2013-01-28 18:20:00,
2013-01-28 13:25:00,42.2,39.5,30.16,SW,222,9.0,14.0,90,0.00,,,0.14,Wunderground v.1.15,2013-01-28 18:25:00,
2013-01-28 13:31:00,42.9,40.2,30.16,SW,216,8.0,9.0,90,0.00,,,0.14,Wunderground v.1.15,2013-01-28 18:31:00,
2013-01-28 13:36:00,43.1,40.1,30.15,SW,224,9.0,13.0,89,0.00,,,0.14,Wunderground v.1.15,2013-01-28 18:36:00,
2013-01-28 13:42:00,43.9,40.6,30.15,SW,219,10.0,11.0,88,0.00,,,0.14,Wunderground v.1.15,2013-01-28 18:42:00,
2013-01-28 13:47:00,44.2,40.9,30.14,SW,234,9.0,12.0,88,0.00,,,0.14,Wunderground v.1.15,2013-01-28 18:47:00,
2013-01-28 13:52:00,43.9,40.3,30.14,SW,221,9.0,10.0,87,0.00,,,0.14,Wunderground v.1.15,2013-01-28 18:52:00,
2013-01-28 13:57:00,43.8,40.2,30.13,SSW,212,8.0,11.0,87,0.00,,,0.14,Wunderground v.1.15,2013-01-28 18:57:00,
2013-01-28 14:03:00,43.7,39.8,30.13,SW,223,9.0,13.0,86,0.00,,,0.14,Wunderground v.1.15,2013-01-28 19:03:00,
2013-01-28 14:09:00,43.6,40.0,30.13,SW,228,9.0,13.0,87,0.00,,,0.14,Wunderground v.1.15,2013-01-28 19:09:00,
2013-01-28 14:14:00,43.5,39.9,30.13,SW,222,8.0,11.0,87,0.00,,,0.14,Wunderground v.1.15,2013-01-28 19:14:00,
2013-01-28 14:19:00,43.5,39.9,30.12,SW,217,8.0,11.0,87,0.00,,,0.14,Wunderground v.1.15,2013-01-28 19:19:00,
2013-01-28 14:24:00,43.7,40.1,30.12,SW,230,7.0,8.0,87,0.00,,,0.14,Wunderground v.1.15,2013-01-28 19:24:00,
2013-01-28 14:29:00,44.1,40.2,30.12,SW,214,7.0,10.0,86,0.00,,,0.14,Wunderground v.1.15,2013-01-28 19:29:00,
2013-01-28 14:35:00,44.2,40.3,30.12,SW,221,7.0,8.0,86,0.00,,,0.14,Wunderground v.1.15,2013-01-28 19:35:00,
2013-01-28 14:40:00,44.1,40.2,30.12,SW,219,6.0,6.0,86,0.00,,,0.14,Wunderground v.1.15,2013-01-28 19:40:00,
2013-01-28 14:45:00,44.1,40.2,30.12,SW,219,5.0,6.0,86,0.00,,,0.14,Wunderground v.1.15,2013-01-28 19:45:00,
2013-01-28 14:51:00,44.2,40.3,30.11,SW,219,6.0,6.0,86,0.00,,,0.14,Wunderground v.1.15,2013-01-28 19:51:00,
2013-01-28 14:56:00,44.3,40.4,30.11,SSW,209,6.0,8.0,86,0.00,,,0.14,Wunderground v.1.15,2013-01-28 19:56:00,
2013-01-28 15:02:00,44.3,40.4,30.11,SW,229,6.0,11.0,86,0.00,,,0.14,Wunderground v.1.15,2013-01-28 20:02:00,
2013-01-28 15:07:00,44.1,40.2,30.12,SW,226,6.0,11.0,86,0.00,,,0.14,Wunderground v.1.15,2013-01-28 20:07:00,
2013-01-28 15:12:00,43.9,40.0,30.12,SW,227,7.0,8.0,86,0.00,,,0.14,Wunderground v.1.15,2013-01-28 20:12:00,
2013-01-28 15:18:00,44.0,40.1,30.11,SW,216,7.0,9.0,86,0.00,,,0.14,Wunderground v.1.15,2013-01-28 20:18:00,
2013-01-28 15:24:00,44.1,40.2,30.11,SW,220,7.0,10.0,86,0.00,,,0.14,Wunderground v.1.15,2013-01-28 20:24:00,
2013-01-28 15:29:00,44.4,40.5,30.11,SW,229,8.0,12.0,86,0.00,,,0.14,Wunderground v.1.15,2013-01-28 20:29:00,
2013-01-28 15:34:00,44.6,40.7,30.11,SW,216,9.0,11.0,86,0.00,,,0.14,Wunderground v.1.15,2013-01-28 20:34:00,
2013-01-28 15:39:00,44.7,40.8,30.11,SW,230,9.0,13.0,86,0.00,,,0.14,Wunderground v.1.15,2013-01-28 20:39:00,
2013-01-28 15:44:00,44.7,40.8,30.11,SW,217,9.0,10.0,86,0.00,,,0.14,Wunderground v.1.15,2013-01-28 20:44:00,
2013-01-28 15:50:00,45.0,41.1,30.11,SW,222,8.0,9.0,86,0.00,,,0.14,Wunderground v.1.15,2013-01-28 20:50:00,
2013-01-28 15:55:00,45.0,41.1,30.11,SW,214,7.0,9.0,86,0.00,,,0.14,Wunderground v.1.15,2013-01-28 20:55:00,
2013-01-28 16:01:00,45.2,41.3,30.11,SW,216,6.0,6.0,86,0.00,,,0.14,Wunderground v.1.15,2013-01-28 21:01:00,
2013-01-28 16:06:00,45.2,41.3,30.11,SW,217,4.0,6.0,86,0.00,,,0.14,Wunderground v.1.15,2013-01-28 21:06:00,
2013-01-28 16:11:00,45.1,41.2,30.11,SSW,209,4.0,5.0,86,0.00,,,0.14,Wunderground v.1.15,2013-01-28 21:11:00,
2013-01-28 16:17:00,45.2,41.3,30.11,SSW,205,4.0,5.0,86,0.00,,,0.14,Wunderground v.1.15,2013-01-28 21:17:00,
2013-01-28 16:22:00,45.1,41.5,30.11,SW,225,4.0,6.0,87,0.00,,,0.14,Wunderground v.1.15,2013-01-28 21:22:00,
2013-01-28 16:27:00,45.0,41.4,30.10,SSW,213,5.0,10.0,87,0.00,,,0.14,Wunderground v.1.15,2013-01-28 21:27:00,
2013-01-28 16:34:00,45.2,41.6,30.10,SW,221,6.0,7.0,87,0.00,,,0.14,Wunderground v.1.15,2013-01-28 21:34:00,
2013-01-28 16:39:00,45.4,41.8,30.10,SW,215,6.0,8.0,87,0.00,,,0.14,Wunderground v.1.15,2013-01-28 21:39:00,
2013-01-28 16:44:00,45.8,42.2,30.10,SSW,213,7.0,7.0,87,0.00,,,0.14,Wunderground v.1.15,2013-01-28 21:44:00,
2013-01-28 16:50:00,46.1,42.1,30.10,SSW,210,6.0,6.0,86,0.00,,,0.14,Wunderground v.1.15,2013-01-28 21:50:00,
2013-01-28 16:55:00,46.3,42.3,30.10,SW,220,5.0,7.0,86,0.00,,,0.14,Wunderground v.1.15,2013-01-28 21:55:00,
2013-01-28 17:01:00,46.6,42.6,30.10,SW,220,4.0,4.0,86,0.00,,,0.14,Wunderground v.1.15,2013-01-28 22:01:00,
2013-01-28 17:06:00,46.8,42.8,30.10,SW,217,2.0,5.0,86,0.00,,,0.14,Wunderground v.1.15,2013-01-28 22:06:00,
2013-01-28 17:11:00,47.2,42.9,30.10,SW,217,3.0,5.0,85,0.00,,,0.14,Wunderground v.1.15,2013-01-28 22:11:00,
2013-01-28 17:17:00,47.5,43.2,30.10,SW,217,4.0,5.0,85,0.00,,,0.14,Wunderground v.1.15,2013-01-28 22:17:00,
2013-01-28 17:22:00,47.9,43.6,30.10,SW,215,4.0,6.0,85,0.00,,,0.14,Wunderground v.1.15,2013-01-28 22:22:00,
2013-01-28 17:27:00,48.1,43.5,30.10,SW,214,4.0,6.0,84,0.00,,,0.14,Wunderground v.1.15,2013-01-28 22:27:00,
2013-01-28 17:33:00,48.1,43.5,30.10,SSW,209,4.0,4.0,84,0.00,,,0.14,Wunderground v.1.15,2013-01-28 22:33:00,
2013-01-28 17:38:00,48.1,43.5,30.09,SSW,209,3.0,4.0,84,0.00,,,0.14,Wunderground v.1.15,2013-01-28 22:38:00,
2013-01-28 17:44:00,47.9,43.3,30.09,SSW,213,3.0,7.0,84,0.00,,,0.14,Wunderground v.1.15,2013-01-28 22:44:00,
2013-01-28 17:50:00,48.1,43.5,30.09,SSW,208,3.0,4.0,84,0.00,,,0.14,Wunderground v.1.15,2013-01-28 22:50:00,
2013-01-28 17:55:00,48.1,43.5,30.09,SW,223,3.0,7.0,84,0.00,,,0.14,Wunderground v.1.15,2013-01-28 22:55:00,
2013-01-28 18:00:00,48.4,43.8,30.09,SSW,210,5.0,5.0,84,0.00,,,0.14,Wunderground v.1.15,2013-01-28 23:00:00,
2013-01-28 18:06:00,48.7,44.1,30.09,SSW,211,5.0,7.0,84,0.00,,,0.14,Wunderground v.1.15,2013-01-28 23:06:00,
2013-01-28 18:11:00,48.9,44.0,30.09,SW,220,6.0,7.0,83,0.00,,,0.14,Wunderground v.1.15,2013-01-28 23:11:00,
2013-01-28 18:17:00,49.0,44.1,30.09,SW,216,6.0,7.0,83,0.00,,,0.14,Wunderground v.1.15,2013-01-28 23:17:00,
2013-01-28 18:22:00,49.1,44.2,30.09,SSW,213,5.0,7.0,83,0.00,,,0.14,Wunderground v.1.15,2013-01-28 23:22:00,
2013-01-28 18:27:00,49.0,44.1,30.09,SW,224,5.0,7.0,83,0.00,,,0.14,Wunderground v.1.15,2013-01-28 23:27:00,
2013-01-28 18:33:00,49.0,44.1,30.10,SW,236,4.0,5.0,83,0.00,,,0.14,Wunderground v.1.15,2013-01-28 23:33:00,
2013-01-28 18:38:00,49.2,44.3,30.09,SW,224,4.0,6.0,83,0.00,,,0.14,Wunderground v.1.15,2013-01-28 23:38:00,
2013-01-28 18:43:00,49.7,44.7,30.09,SSW,210,4.0,5.0,83,0.00,,,0.14,Wunderground v.1.15,2013-01-28 23:43:00,
2013-01-28 18:49:00,49.6,44.3,30.09,SSW,209,3.0,5.0,82,0.00,,,0.14,Wunderground v.1.15,2013-01-28 23:49:00,
2013-01-28 18:54:00,49.2,43.9,30.09,SSW,209,2.0,3.0,82,0.00,,,0.14,Wunderground v.1.15,2013-01-28 23:54:00,
2013-01-28 19:00:00,48.6,43.4,30.09,SSW,209,1.0,1.0,82,0.00,,,0.14,Wunderground v.1.15,2013-01-29 00:00:00,
2013-01-28 19:05:00,48.3,43.4,30.09,SSW,209,1.0,4.0,83,0.00,,,0.14,Wunderground v.1.15,2013-01-29 00:05:00,
2013-01-28 19:11:00,48.3,43.7,30.09,SSW,209,2.0,2.0,84,0.00,,,0.14,Wunderground v.1.15,2013-01-29 00:11:00,
2013-01-28 19:16:00,48.3,43.7,30.09,SSW,209,3.0,4.0,84,0.00,,,0.14,Wunderground v.1.15,2013-01-29 00:16:00,
2013-01-28 19:21:00,48.3,43.7,30.09,SSW,209,3.0,4.0,84,0.00,,,0.14,Wunderground v.1.15,2013-01-29 00:21:00,
2013-01-28 19:26:00,48.3,43.7,30.09,SSW,209,3.0,4.0,84,0.00,,,0.14,Wunderground v.1.15,2013-01-29 00:26:00,
2013-01-28 19:32:00,48.2,43.6,30.09,SSW,209,3.0,5.0,84,0.00,,,0.14,Wunderground v.1.15,2013-01-29 00:32:00,
2013-01-28 19:37:00,48.2,43.6,30.09,SSW,209,3.0,5.0,84,0.00,,,0.14,Wunderground v.1.15,2013-01-29 00:37:00,
2013-01-28 19:43:00,48.3,43.7,30.08,SSW,202,4.0,4.0,84,0.00,,,0.14,Wunderground v.1.15,2013-01-29 00:43:00,
2013-01-28 19:49:00,48.4,43.8,30.08,SW,214,4.0,7.0,84,0.00,,,0.14,Wunderground v.1.15,2013-01-29 00:49:00,
2013-01-28 19:54:00,48.6,44.0,30.08,SSW,213,4.0,5.0,84,0.00,,,0.14,Wunderground v.1.15,2013-01-29 00:54:00,
2013-01-28 19:59:00,49.2,44.6,30.07,SW,214,5.0,7.0,84,0.00,,,0.14,Wunderground v.1.15,2013-01-29 00:59:00,
2013-01-28 20:04:00,49.3,44.4,30.08,SW,225,5.0,5.0,83,0.00,,,0.14,Wunderground v.1.15,2013-01-29 01:04:00,
2013-01-28 20:10:00,49.5,44.2,30.08,SSW,204,3.0,6.0,82,0.00,,,0.14,Wunderground v.1.15,2013-01-29 01:10:00,
2013-01-28 20:15:00,49.5,44.2,30.08,SSW,203,3.0,6.0,82,0.00,,,0.14,Wunderground v.1.15,2013-01-29 01:15:00,
2013-01-28 20:20:00,49.5,44.2,30.08,SSW,209,4.0,4.0,82,0.00,,,0.14,Wunderground v.1.15,2013-01-29 01:20:00,
2013-01-28 20:26:00,49.7,44.4,30.08,SSW,211,4.0,7.0,82,0.00,,,0.14,Wunderground v.1.15,2013-01-29 01:26:00,
2013-01-28 20:31:00,50.1,44.8,30.08,SSW,209,5.0,5.0,82,0.00,,,0.14,Wunderground v.1.15,2013-01-29 01:31:00,
2013-01-28 20:37:00,50.3,44.7,30.08,SSW,209,3.0,6.0,81,0.00,,,0.14,Wunderground v.1.15,2013-01-29 01:37:00,
2013-01-28 20:42:00,50.5,44.9,30.08,SW,230,3.0,6.0,81,0.00,,,0.14,Wunderground v.1.15,2013-01-29 01:42:00,
2013-01-28 20:47:00,50.5,44.9,30.08,SW,230,3.0,6.0,81,0.00,,,0.14,Wunderground v.1.15,2013-01-29 01:47:00,
2013-01-28 20:53:00,50.5,44.9,30.08,SW,216,4.0,10.0,81,0.00,,,0.14,Wunderground v.1.15,2013-01-29 01:53:00,
2013-01-28 20:58:00,50.5,44.9,30.08,SW,217,5.0,10.0,81,0.00,,,0.14,Wunderground v.1.15,2013-01-29 01:58:00,
2013-01-28 21:04:00,50.7,45.1,30.08,SSW,211,5.0,5.0,81,0.00,,,0.14,Wunderground v.1.15,2013-01-29 02:04:00,
2013-01-28 21:09:00,50.7,44.8,30.08,SSW,205,4.0,7.0,80,0.00,,,0.14,Wunderground v.1.15,2013-01-29 02:09:00,
2013-01-28 21:15:00,50.5,44.9,30.08,SW,226,5.0,6.0,81,0.00,,,0.14,Wunderground v.1.15,2013-01-29 02:15:00,
2013-01-28 21:20:00,50.3,44.7,30.08,SW,218,5.0,5.0,81,0.00,,,0.14,Wunderground v.1.15,2013-01-29 02:20:00,
2013-01-28 21:25:00,50.1,44.5,30.08,SW,225,5.0,7.0,81,0.00,,,0.14,Wunderground v.1.15,2013-01-29 02:25:00,
2013-01-28 21:31:00,50.1,44.8,30.08,SW,220,6.0,7.0,82,0.00,,,0.14,Wunderground v.1.15,2013-01-29 02:31:00,
2013-01-28 21:36:00,50.4,44.8,30.08,SW,218,6.0,7.0,81,0.00,,,0.14,Wunderground v.1.15,2013-01-29 02:36:00,
2013-01-28 21:41:00,50.8,45.2,30.08,SW,217,6.0,7.0,81,0.00,,,0.14,Wunderground v.1.15,2013-01-29 02:41:00,
2013-01-28 21:46:00,51.0,45.4,30.08,SW,223,6.0,8.0,81,0.00,,,0.14,Wunderground v.1.15,2013-01-29 02:46:00,
2013-01-28 21:52:00,51.3,45.3,30.08,SW,219,6.0,7.0,80,0.00,,,0.14,Wunderground v.1.15,2013-01-29 02:52:00,
2013-01-28 21:57:00,51.5,45.5,30.08,SW,225,6.0,7.0,80,0.00,,,0.14,Wunderground v.1.15,2013-01-29 02:57:00,